Time;durP1;ratioP1;P1;durP2;ratioP2;P2;SDS_P1;SDS_P2;PMS_P1;PMS_P2;Temp;Humidity;BMP_temperature;BMP_pressure;BME280_temperature;BME280_humidity;BME280_pressure;Samples;Min_cycle;Max_cycle;Signal;HPM_P1;HPM_P2
2023/08/29 00:01:33;;;;;;;5.00;4.60;;;13.20;99.90;;;;;;5049061;28;21048;-55
2023/08/29 00:04:02;;;;;;;4.83;4.43;;;13.10;99.90;;;;;;5047875;28;20898;-56
2023/08/29 00:06:30;;;;;;;4.67;4.27;;;13.10;99.90;;;;;;5052563;28;20489;-56
2023/08/29 00:08:58;;;;;;;5.10;4.73;;;13.10;99.90;;;;;;5050990;28;20584;-58
2023/08/29 00:11:27;;;;;;;5.40;5.00;;;13.00;99.90;;;;;;5041275;28;20557;-56
2023/08/29 00:13:56;;;;;;;5.30;4.80;;;13.00;99.90;;;;;;5042810;28;21182;-56
2023/08/29 00:16:24;;;;;;;5.73;5.13;;;13.00;99.90;;;;;;5012716;28;20491;-56
2023/08/29 00:18:52;;;;;;;5.30;4.90;;;13.00;99.90;;;;;;5004758;28;21157;-56
2023/08/29 00:21:21;;;;;;;5.33;4.77;;;12.90;99.90;;;;;;5006396;28;20518;-55
2023/08/29 00:23:49;;;;;;;5.67;5.17;;;13.00;99.90;;;;;;5008189;28;20923;-56
2023/08/29 00:26:17;;;;;;;4.83;4.53;;;13.00;99.90;;;;;;5009271;28;20487;-56
2023/08/29 00:28:46;;;;;;;5.27;4.80;;;12.90;99.90;;;;;;5011386;28;20485;-56
2023/08/29 00:31:14;;;;;;;5.80;5.30;;;12.90;99.90;;;;;;5029161;28;21019;-56
2023/08/29 00:33:43;;;;;;;5.30;4.80;;;12.90;99.90;;;;;;5002292;28;20521;-56
2023/08/29 00:36:11;;;;;;;5.37;4.97;;;12.90;99.90;;;;;;5014577;28;20665;-56
2023/08/29 00:38:40;;;;;;;6.30;5.80;;;12.90;99.90;;;;;;5013997;28;20478;-56
2023/08/29 00:41:10;;;;;;;6.43;5.93;;;12.80;99.90;;;;;;5022425;28;20700;-56
2023/08/29 00:43:38;;;;;;;5.83;5.33;;;12.80;99.90;;;;;;5017289;28;20920;-56
2023/08/29 00:46:07;;;;;;;6.70;6.10;;;12.80;99.90;;;;;;5008832;28;20478;-56
2023/08/29 00:48:36;;;;;;;6.50;6.00;;;12.80;99.90;;;;;;5014140;28;21581;-58
2023/08/29 00:51:04;;;;;;;6.57;6.07;;;12.80;99.90;;;;;;5017044;28;20551;-55
2023/08/29 00:53:35;;;;;;;5.87;5.37;;;12.70;99.90;;;;;;5015323;28;20559;-55
2023/08/29 00:56:06;;;;;;;5.53;5.13;;;12.70;99.90;;;;;;5010102;28;20509;-55
2023/08/29 00:58:34;;;;;;;6.23;5.73;;;12.70;99.90;;;;;;5013428;28;20554;-56
2023/08/29 01:01:03;;;;;;;6.50;6.00;;;12.70;99.90;;;;;;5011383;28;20701;-56
2023/08/29 01:03:31;;;;;;;9.07;5.43;;;12.60;99.90;;;;;;5008746;28;20983;-57
2023/08/29 01:05:59;;;;;;;6.53;6.00;;;12.60;99.90;;;;;;5033533;28;20489;-55
2023/08/29 01:08:27;;;;;;;6.00;5.50;;;12.60;99.90;;;;;;5033142;28;20478;-55
2023/08/29 01:11:01;;;;;;;6.70;6.10;;;12.60;99.90;;;;;;5037116;28;20557;-59
2023/08/29 01:13:36;;;;;;;6.77;6.07;;;12.50;99.90;;;;;;5030063;28;20597;-56
2023/08/29 01:16:08;;;;;;;6.43;5.83;;;12.50;99.90;;;;;;5031529;28;20494;-55
2023/08/29 01:18:38;;;;;;;6.73;5.93;;;12.50;99.90;;;;;;5026595;28;20471;-55
2023/08/29 01:21:16;;;;;;;6.00;5.50;;;12.50;99.90;;;;;;5040101;28;20482;-56
2023/08/29 01:23:46;;;;;;;6.87;6.30;;;12.40;99.90;;;;;;5031072;28;20498;-56
2023/08/29 01:26:17;;;;;;;7.17;6.60;;;12.40;99.90;;;;;;5037640;28;20749;-56
2023/08/29 01:28:47;;;;;;;6.63;6.00;;;12.40;99.90;;;;;;5039573;28;20554;-56
2023/08/29 01:31:17;;;;;;;6.93;6.33;;;12.40;99.90;;;;;;5037531;28;20596;-55
2023/08/29 01:33:45;;;;;;;7.10;6.50;;;12.30;99.90;;;;;;5039030;28;20490;-56
2023/08/29 01:36:13;;;;;;;6.27;5.77;;;12.30;99.90;;;;;;5039660;28;20617;-54
2023/08/29 01:38:41;;;;;;;6.67;5.93;;;12.30;99.90;;;;;;5046212;28;20887;-56
2023/08/29 01:41:09;;;;;;;8.73;6.17;;;12.30;99.90;;;;;;5048575;28;20891;-58
2023/08/29 01:43:38;;;;;;;6.33;5.83;;;12.30;99.90;;;;;;5049835;28;20476;-56
2023/08/29 01:46:06;;;;;;;6.37;5.87;;;12.30;99.90;;;;;;5051072;28;20532;-56
2023/08/29 01:48:35;;;;;;;6.33;5.83;;;12.30;99.90;;;;;;5044283;28;20841;-55
2023/08/29 01:51:03;;;;;;;6.90;6.30;;;12.30;99.90;;;;;;5042956;28;20462;-56
2023/08/29 01:53:31;;;;;;;6.43;5.83;;;12.20;99.90;;;;;;5046411;28;20506;-57
2023/08/29 01:56:01;;;;;;;6.53;6.03;;;12.20;99.90;;;;;;5044823;28;20497;-57
2023/08/29 01:58:29;;;;;;;6.67;6.07;;;12.10;99.90;;;;;;5046346;28;20471;-57
2023/08/29 02:00:59;;;;;;;6.07;5.57;;;12.10;99.90;;;;;;5054250;28;20532;-57
2023/08/29 02:03:47;;;;;;;6.27;5.67;;;12.10;99.90;;;;;;5043940;28;20471;-57
2023/08/29 02:06:15;;;;;;;5.73;5.20;;;12.10;99.90;;;;;;5049350;28;20486;-57
2023/08/29 02:08:44;;;;;;;6.13;5.73;;;12.10;99.90;;;;;;5043311;28;20558;-56
2023/08/29 02:11:12;;;;;;;6.43;5.83;;;12.10;99.90;;;;;;5039653;28;20471;-56
2023/08/29 02:13:40;;;;;;;6.30;5.80;;;12.10;99.90;;;;;;5028949;28;20560;-57
2023/08/29 02:16:10;;;;;;;6.20;5.60;;;12.00;99.90;;;;;;5019926;28;20497;-57
2023/08/29 02:18:39;;;;;;;6.20;5.60;;;12.00;99.90;;;;;;5008436;28;20482;-55
2023/08/29 02:21:07;;;;;;;5.70;5.30;;;12.00;99.90;;;;;;5002495;28;20476;-56
2023/08/29 02:23:35;;;;;;;6.07;5.57;;;12.00;99.90;;;;;;5011625;28;20493;-56
2023/08/29 02:26:04;;;;;;;5.90;5.40;;;12.00;99.90;;;;;;5021586;28;20485;-55
2023/08/29 02:28:35;;;;;;;5.63;5.23;;;11.90;99.90;;;;;;5036918;28;20470;-57
2023/08/29 02:31:04;;;;;;;6.13;5.60;;;11.90;99.90;;;;;;5035089;28;20482;-57
2023/08/29 02:33:35;;;;;;;6.13;5.73;;;11.90;99.90;;;;;;5039111;28;20465;-55
2023/08/29 02:36:04;;;;;;;6.20;5.70;;;11.90;99.90;;;;;;5042727;28;20554;-56
2023/08/29 02:38:32;;;;;;;6.27;5.77;;;11.90;99.90;;;;;;5042633;28;20571;-57
2023/08/29 02:41:01;;;;;;;5.50;5.10;;;11.80;99.90;;;;;;5035159;28;20868;-55
2023/08/29 02:43:29;;;;;;;6.47;5.87;;;11.80;99.90;;;;;;5040421;28;21244;-56
2023/08/29 02:45:57;;;;;;;5.67;5.27;;;11.80;99.90;;;;;;5040159;28;21006;-56
2023/08/29 02:48:27;;;;;;;5.83;5.37;;;11.80;99.90;;;;;;5041703;28;20480;-56
2023/08/29 02:50:57;;;;;;;5.30;4.93;;;11.80;99.90;;;;;;5033816;28;20485;-56
2023/08/29 02:53:24;;;;;;;5.60;5.20;;;11.80;99.90;;;;;;5034104;28;20468;-57
2023/08/29 02:55:53;;;;;;;6.30;5.00;;;11.70;99.90;;;;;;5041079;28;20585;-57
2023/08/29 02:58:21;;;;;;;5.20;4.80;;;11.70;99.90;;;;;;5046006;28;20470;-56
2023/08/29 03:00:55;;;;;;;5.20;4.83;;;11.70;99.90;;;;;;5042258;28;20558;-57
2023/08/29 03:03:24;;;;;;;7.83;5.80;;;11.70;99.90;;;;;;5033870;28;20501;-57
2023/08/29 03:05:57;;;;;;;6.10;5.60;;;11.70;99.90;;;;;;5042808;28;20485;-56
2023/08/29 03:08:26;;;;;;;5.97;5.47;;;11.70;99.90;;;;;;5035532;28;20466;-56
2023/08/29 03:10:54;;;;;;;5.70;5.30;;;11.70;99.90;;;;;;5036136;28;20481;-56
2023/08/29 03:13:22;;;;;;;5.63;5.17;;;11.70;99.90;;;;;;5045736;28;20469;-56
2023/08/29 03:15:50;;;;;;;5.93;5.50;;;11.70;99.90;;;;;;5036873;28;20490;-56
2023/08/29 03:18:18;;;;;;;5.60;5.20;;;11.70;99.90;;;;;;5041287;28;20936;-55
2023/08/29 03:20:47;;;;;;;5.57;5.10;;;11.60;99.90;;;;;;5030696;28;20550;-56
2023/08/29 03:23:17;;;;;;;5.13;4.73;;;11.60;99.90;;;;;;5040192;28;20496;-56
2023/08/29 03:25:45;;;;;;;5.33;4.93;;;11.60;99.90;;;;;;5027565;28;20583;-56
2023/08/29 03:28:13;;;;;;;5.70;5.30;;;11.50;99.90;;;;;;5002400;28;20471;-56
2023/08/29 03:30:41;;;;;;;5.80;5.30;;;11.50;99.90;;;;;;5011952;28;21076;-57
2023/08/29 03:33:09;;;;;;;5.40;4.90;;;11.50;99.90;;;;;;5006243;28;20481;-56
2023/08/29 03:35:37;;;;;;;5.93;5.40;;;11.50;99.90;;;;;;5008086;28;21004;-57
2023/08/29 03:38:05;;;;;;;5.60;5.20;;;11.60;99.90;;;;;;5015168;28;20566;-56
2023/08/29 03:40:35;;;;;;;5.10;4.70;;;11.60;99.90;;;;;;5013633;28;20463;-56
2023/08/29 03:43:03;;;;;;;6.00;5.50;;;11.50;99.90;;;;;;5013868;28;20504;-55
2023/08/29 03:45:31;;;;;;;5.70;5.30;;;11.50;99.90;;;;;;5012798;28;20578;-57
2023/08/29 03:47:59;;;;;;;5.00;4.50;;;11.50;99.90;;;;;;5017314;28;20496;-56
2023/08/29 03:50:29;;;;;;;5.77;5.37;;;11.50;99.90;;;;;;5014545;28;21260;-56
2023/08/29 03:52:58;;;;;;;5.60;5.20;;;11.50;99.90;;;;;;5013195;28;20491;-55
2023/08/29 03:55:26;;;;;;;5.47;5.00;;;11.40;99.90;;;;;;5015555;28;20531;-57
2023/08/29 03:57:55;;;;;;;5.80;5.30;;;11.40;99.90;;;;;;5024844;28;20477;-57
2023/08/29 04:00:24;;;;;;;5.83;5.33;;;11.40;99.90;;;;;;5028807;28;20558;-57
2023/08/29 04:02:52;;;;;;;5.43;5.03;;;11.40;99.90;;;;;;5027883;28;20945;-56
2023/08/29 04:05:21;;;;;;;5.63;5.13;;;11.40;99.90;;;;;;5028484;28;20949;-57
2023/08/29 04:07:50;;;;;;;5.67;5.27;;;11.40;99.90;;;;;;5028107;28;20991;-55
2023/08/29 04:10:18;;;;;;;5.80;5.30;;;11.40;99.90;;;;;;5023636;28;21051;-57
2023/08/29 04:12:46;;;;;;;5.70;5.20;;;11.30;99.90;;;;;;5023565;28;20491;-57
2023/08/29 04:15:15;;;;;;;5.60;5.20;;;11.30;99.90;;;;;;5026465;28;20586;-56
2023/08/29 04:17:43;;;;;;;6.20;5.60;;;11.30;99.90;;;;;;5021359;28;20501;-56
2023/08/29 04:20:12;;;;;;;5.93;5.43;;;11.30;99.90;;;;;;5022282;28;20547;-56
2023/08/29 04:22:40;;;;;;;5.60;5.20;;;11.30;99.90;;;;;;5020917;28;20515;-56
2023/08/29 04:25:09;;;;;;;6.50;6.00;;;11.30;99.90;;;;;;5018333;28;21107;-56
2023/08/29 04:27:38;;;;;;;4.97;4.67;;;11.30;99.90;;;;;;5017152;28;20478;-56
2023/08/29 04:30:07;;;;;;;6.33;5.83;;;11.30;99.90;;;;;;5010738;28;20506;-57
2023/08/29 04:32:37;;;;;;;5.90;5.30;;;11.30;99.90;;;;;;5015095;28;22147;-56
2023/08/29 04:35:06;;;;;;;6.10;5.60;;;11.30;99.90;;;;;;5020251;28;20483;-60
2023/08/29 04:37:34;;;;;;;6.47;5.80;;;11.30;99.90;;;;;;5020800;28;20854;-55
2023/08/29 04:40:06;;;;;;;6.80;6.00;;;11.30;99.90;;;;;;5023295;28;21031;-56
2023/08/29 04:42:34;;;;;;;6.30;5.80;;;11.30;99.90;;;;;;5020728;28;20546;-56
2023/08/29 04:45:05;;;;;;;6.40;5.90;;;11.30;99.90;;;;;;5020199;28;21009;-57
2023/08/29 04:47:33;;;;;;;5.97;5.47;;;11.30;99.90;;;;;;5014275;28;20481;-56
2023/08/29 04:50:03;;;;;;;7.30;5.57;;;11.30;99.90;;;;;;5015793;28;20513;-57
2023/08/29 04:52:31;;;;;;;5.73;5.23;;;11.30;99.90;;;;;;5010428;28;20503;-55
2023/08/29 04:54:59;;;;;;;6.37;5.80;;;11.30;99.90;;;;;;5020849;28;20523;-56
2023/08/29 04:57:27;;;;;;;6.33;5.83;;;11.30;99.90;;;;;;5022827;28;20530;-55
2023/08/29 04:59:55;;;;;;;6.20;5.70;;;11.30;99.90;;;;;;5023915;28;20914;-56
2023/08/29 05:02:23;;;;;;;6.90;6.30;;;11.30;99.90;;;;;;5022658;28;20545;-56
2023/08/29 05:04:52;;;;;;;6.07;5.57;;;11.30;99.90;;;;;;5016520;28;20483;-56
2023/08/29 05:07:22;;;;;;;7.17;6.60;;;11.30;99.90;;;;;;5006305;28;20479;-63
2023/08/29 05:09:50;;;;;;;7.13;6.50;;;11.30;99.90;;;;;;5020684;28;20475;-63
2023/08/29 05:12:18;;;;;;;6.57;6.07;;;11.30;99.90;;;;;;4962478;28;20926;-59
2023/08/29 05:14:46;;;;;;;6.70;6.13;;;11.30;99.90;;;;;;5043181;28;21324;-57
2023/08/29 05:17:14;;;;;;;6.50;6.00;;;11.40;99.90;;;;;;5033191;28;20619;-56
2023/08/29 05:19:43;;;;;;;6.47;5.97;;;11.50;99.90;;;;;;5035007;28;21250;-56
2023/08/29 05:22:11;;;;;;;7.30;6.60;;;11.50;99.90;;;;;;5041380;28;20478;-57
2023/08/29 05:24:40;;;;;;;7.27;6.67;;;11.50;99.90;;;;;;5029358;28;20534;-57
2023/08/29 05:27:08;;;;;;;6.60;6.10;;;11.50;99.90;;;;;;5020308;28;20471;-55
2023/08/29 05:29:36;;;;;;;7.60;6.90;;;11.50;99.90;;;;;;5030665;28;20849;-56
2023/08/29 05:32:05;;;;;;;7.63;6.87;;;11.60;99.90;;;;;;5035530;28;20587;-58
2023/08/29 05:34:33;;;;;;;6.70;6.10;;;11.60;99.90;;;;;;5032582;28;20482;-56
2023/08/29 05:37:02;;;;;;;7.10;6.50;;;11.60;99.90;;;;;;5040064;28;20498;-58
2023/08/29 05:39:30;;;;;;;8.07;7.40;;;11.60;99.90;;;;;;5042140;28;20472;-57
2023/08/29 05:42:00;;;;;;;8.57;7.67;;;11.70;99.90;;;;;;5041591;28;21082;-57
2023/08/29 05:44:28;;;;;;;8.53;7.73;;;11.70;99.90;;;;;;5039509;28;20505;-56
2023/08/29 05:46:56;;;;;;;9.50;8.50;;;11.80;99.90;;;;;;5042453;28;20625;-56
2023/08/29 05:49:24;;;;;;;9.00;8.20;;;11.80;99.90;;;;;;5035831;28;20996;-57
2023/08/29 05:51:52;;;;;;;8.63;7.93;;;11.80;99.90;;;;;;5038730;28;20597;-56
2023/08/29 05:54:20;;;;;;;9.43;8.53;;;11.80;99.90;;;;;;5044041;28;20494;-56
2023/08/29 05:56:48;;;;;;;8.63;7.93;;;11.80;99.90;;;;;;5042313;28;20482;-57
2023/08/29 05:59:18;;;;;;;9.40;8.60;;;11.90;99.90;;;;;;5044019;28;21027;-59
2023/08/29 06:01:45;;;;;;;9.87;8.97;;;11.90;99.90;;;;;;5041271;28;20479;-56
2023/08/29 06:04:13;;;;;;;8.87;8.07;;;11.90;99.90;;;;;;5045560;28;20494;-59
2023/08/29 06:06:43;;;;;;;8.90;8.10;;;12.00;99.90;;;;;;5036853;28;20635;-55
2023/08/29 06:09:11;;;;;;;10.77;9.37;;;12.00;99.90;;;;;;5044828;28;21035;-58
2023/08/29 06:11:39;;;;;;;9.30;8.50;;;12.00;99.90;;;;;;5041031;28;20532;-57
2023/08/29 06:14:07;;;;;;;9.03;8.33;;;12.10;99.90;;;;;;5038166;28;20490;-57
2023/08/29 06:16:37;;;;;;;8.87;8.03;;;12.10;99.90;;;;;;5044074;28;22520;-58
2023/08/29 06:19:05;;;;;;;8.97;8.17;;;12.10;99.90;;;;;;5043714;28;20843;-57
2023/08/29 06:21:33;;;;;;;9.40;8.60;;;12.10;99.90;;;;;;5038896;28;20462;-57
2023/08/29 06:24:01;;;;;;;9.20;8.40;;;12.20;99.90;;;;;;5042127;28;21159;-57
2023/08/29 06:26:29;;;;;;;10.30;9.40;;;12.20;99.90;;;;;;5037287;28;20483;-58
2023/08/29 06:28:57;;;;;;;9.77;8.73;;;12.30;99.90;;;;;;5042467;28;20470;-58
2023/08/29 06:31:25;;;;;;;9.80;9.00;;;12.30;99.90;;;;;;5035879;28;20553;-57
2023/08/29 06:33:54;;;;;;;10.97;8.60;;;12.30;99.90;;;;;;5033941;28;20943;-58
2023/08/29 06:36:22;;;;;;;9.10;8.30;;;12.40;99.90;;;;;;5037993;28;20478;-58
2023/08/29 06:38:50;;;;;;;10.00;9.10;;;12.40;99.90;;;;;;5040749;28;21129;-58
2023/08/29 06:41:18;;;;;;;8.80;8.00;;;12.40;99.90;;;;;;5034485;28;20527;-57
2023/08/29 06:43:47;;;;;;;9.43;8.60;;;12.40;99.90;;;;;;5035768;28;20570;-58
2023/08/29 06:46:15;;;;;;;9.70;8.80;;;12.50;99.90;;;;;;5042738;28;21079;-58
2023/08/29 06:48:43;;;;;;;9.20;8.30;;;12.50;99.90;;;;;;5041003;28;20943;-58
2023/08/29 06:51:13;;;;;;;10.67;9.70;;;12.60;99.90;;;;;;5040443;28;20577;-58
2023/08/29 06:53:41;;;;;;;10.77;9.67;;;12.60;99.90;;;;;;5040211;28;20850;-58
2023/08/29 06:56:09;;;;;;;11.00;9.90;;;12.70;99.90;;;;;;5040465;28;20510;-58
2023/08/29 06:58:38;;;;;;;9.70;8.80;;;12.80;99.90;;;;;;5039312;28;20582;-57
2023/08/29 07:01:06;;;;;;;10.30;9.50;;;12.80;99.90;;;;;;5038499;28;20999;-58
2023/08/29 07:03:34;;;;;;;10.53;9.63;;;12.90;99.90;;;;;;5036950;28;20571;-57
2023/08/29 07:06:02;;;;;;;10.33;9.47;;;12.90;99.90;;;;;;5043419;28;20494;-57
2023/08/29 07:08:31;;;;;;;10.73;9.63;;;13.00;99.90;;;;;;5042192;28;20470;-56
2023/08/29 07:11:00;;;;;;;10.10;9.10;;;13.10;99.90;;;;;;5043537;28;20470;-57
2023/08/29 07:13:27;;;;;;;10.10;9.20;;;13.10;99.90;;;;;;5038870;28;20605;-57
2023/08/29 07:15:55;;;;;;;11.80;10.70;;;13.20;99.90;;;;;;5036981;28;20569;-57
2023/08/29 07:18:24;;;;;;;10.53;9.63;;;13.30;99.90;;;;;;5041378;28;20474;-57
2023/08/29 07:20:52;;;;;;;9.63;8.83;;;13.30;99.90;;;;;;5038194;28;21062;-57
2023/08/29 07:23:20;;;;;;;10.20;9.30;;;13.40;99.90;;;;;;5037134;28;20560;-57
2023/08/29 07:25:49;;;;;;;10.33;9.33;;;13.50;99.90;;;;;;5037671;28;20577;-57
2023/08/29 07:28:17;;;;;;;10.13;9.23;;;13.50;99.90;;;;;;5044290;28;20470;-57
2023/08/29 07:30:47;;;;;;;10.90;9.90;;;13.60;99.90;;;;;;5043301;28;20516;-58
2023/08/29 07:33:15;;;;;;;10.17;9.27;;;13.70;99.90;;;;;;5042235;28;20462;-58
2023/08/29 07:35:45;;;;;;;9.63;8.73;;;13.70;99.90;;;;;;5036003;28;20552;-57
2023/08/29 07:38:13;;;;;;;9.13;8.40;;;13.80;99.90;;;;;;5040796;28;20467;-57
2023/08/29 07:40:41;;;;;;;9.67;8.80;;;13.90;99.90;;;;;;5043254;28;21003;-58
2023/08/29 07:43:11;;;;;;;9.10;8.20;;;13.90;99.90;;;;;;5043604;28;20563;-58
2023/08/29 07:45:39;;;;;;;9.30;8.40;;;14.00;99.90;;;;;;5041465;28;20573;-57
2023/08/29 07:48:07;;;;;;;8.53;7.83;;;14.10;99.90;;;;;;5040295;28;20561;-59
2023/08/29 07:50:36;;;;;;;9.07;8.27;;;14.10;99.90;;;;;;5042102;28;20479;-57
2023/08/29 07:53:05;;;;;;;9.47;8.47;;;14.20;99.90;;;;;;5045369;28;20561;-57
2023/08/29 07:55:33;;;;;;;9.93;9.03;;;14.30;99.90;;;;;;5045579;28;20490;-57
2023/08/29 07:58:02;;;;;;;8.93;8.13;;;14.30;99.90;;;;;;5045555;28;20474;-56
2023/08/29 08:00:32;;;;;;;9.00;8.30;;;14.40;99.90;;;;;;5048024;28;20473;-58
2023/08/29 08:03:01;;;;;;;8.57;7.87;;;14.50;99.90;;;;;;5043058;28;20462;-58
2023/08/29 08:05:30;;;;;;;9.67;8.83;;;14.60;99.90;;;;;;5046878;28;20502;-57
2023/08/29 08:07:59;;;;;;;10.27;8.57;;;14.60;99.90;;;;;;5041840;28;20511;-58
2023/08/29 08:10:28;;;;;;;8.60;7.83;;;14.60;99.90;;;;;;5041519;28;20650;-58
2023/08/29 08:12:56;;;;;;;8.07;7.47;;;14.70;99.90;;;;;;5043679;28;20497;-57
2023/08/29 08:15:24;;;;;;;8.80;8.00;;;14.70;99.90;;;;;;5042270;28;20502;-56
2023/08/29 08:17:53;;;;;;;7.40;6.70;;;14.70;99.90;;;;;;5040365;28;20470;-58
2023/08/29 08:20:22;;;;;;;8.10;7.40;;;14.80;99.90;;;;;;5042153;28;21449;-57
2023/08/29 08:22:50;;;;;;;7.90;7.30;;;14.80;99.90;;;;;;5043721;28;20470;-57
2023/08/29 08:25:18;;;;;;;7.27;6.67;;;14.90;99.90;;;;;;5043706;28;20522;-58
2023/08/29 08:27:46;;;;;;;7.33;6.73;;;14.90;99.90;;;;;;5045115;28;20541;-57
2023/08/29 08:30:14;;;;;;;7.87;7.17;;;14.90;99.90;;;;;;5043709;28;20560;-57
2023/08/29 08:32:43;;;;;;;6.63;6.10;;;15.00;99.90;;;;;;5039971;28;20472;-57
2023/08/29 08:35:12;;;;;;;7.07;6.47;;;15.00;99.90;;;;;;5043438;28;20581;-58
2023/08/29 08:37:40;;;;;;;6.57;5.97;;;15.10;99.90;;;;;;5041122;28;20494;-57
2023/08/29 08:40:10;;;;;;;6.13;5.63;;;15.10;99.90;;;;;;5044235;28;20466;-57
2023/08/29 08:42:40;;;;;;;5.73;5.30;;;15.20;99.90;;;;;;5037929;28;20561;-58
2023/08/29 08:45:10;;;;;;;6.07;5.47;;;15.30;99.90;;;;;;5040448;28;20483;-57
2023/08/29 08:47:39;;;;;;;6.40;5.80;;;15.30;99.90;;;;;;5046289;28;20847;-58
2023/08/29 08:50:09;;;;;;;6.10;5.57;;;15.40;99.90;;;;;;5043546;28;20470;-57
2023/08/29 08:52:40;;;;;;;5.63;5.00;;;15.40;99.90;;;;;;5035911;28;20639;-57
2023/08/29 08:55:09;;;;;;;6.47;5.20;;;15.50;99.90;;;;;;5045255;28;20527;-57
2023/08/29 08:57:38;;;;;;;4.90;4.40;;;15.50;99.90;;;;;;5041018;28;20566;-57
2023/08/29 09:00:07;;;;;;;6.10;4.87;;;15.60;99.90;;;;;;5042047;28;20585;-58
2023/08/29 09:02:38;;;;;;;5.00;4.50;;;15.60;99.90;;;;;;5038735;28;20834;-57
2023/08/29 09:05:07;;;;;;;6.07;4.83;;;15.60;99.90;;;;;;5043193;28;20577;-58
2023/08/29 09:07:40;;;;;;;4.80;4.30;;;15.60;99.90;;;;;;5040925;28;20455;-56
2023/08/29 09:10:10;;;;;;;5.80;4.27;;;15.60;99.90;;;;;;5037643;28;20572;-57
2023/08/29 09:12:47;;;;;;;4.53;3.77;;;15.70;99.90;;;;;;5040217;28;20569;-57
2023/08/29 09:15:17;;;;;;;4.77;4.23;;;15.80;99.90;;;;;;5042637;28;20489;-58
2023/08/29 09:17:47;;;;;;;5.50;4.73;;;15.90;99.90;;;;;;5042390;28;20565;-58
2023/08/29 09:20:16;;;;;;;4.43;4.03;;;15.90;99.90;;;;;;5042922;28;20466;-58
2023/08/29 09:22:49;;;;;;;4.83;4.17;;;16.00;99.90;;;;;;5041492;28;20853;-58
2023/08/29 09:25:17;;;;;;;4.63;4.23;;;16.10;99.90;;;;;;5041443;28;20499;-58
2023/08/29 09:27:47;;;;;;;4.73;3.80;;;16.20;99.90;;;;;;5045125;28;20673;-58
2023/08/29 09:30:16;;;;;;;4.90;4.50;;;16.30;99.90;;;;;;5041659;28;20552;-58
2023/08/29 09:32:45;;;;;;;4.57;4.13;;;16.40;99.90;;;;;;5037721;28;20470;-58
2023/08/29 09:35:15;;;;;;;4.27;3.87;;;16.40;99.90;;;;;;5044324;28;20493;-58
2023/08/29 09:37:50;;;;;;;4.00;3.70;;;16.50;99.90;;;;;;5041558;28;20561;-58
2023/08/29 09:40:20;;;;;;;3.83;3.53;;;16.60;99.90;;;;;;5041388;28;20481;-58
2023/08/29 09:43:05;;;;;;;4.40;4.00;;;16.70;99.90;;;;;;5043309;28;20553;-58
2023/08/29 09:45:37;;;;;;;4.73;3.57;;;16.70;99.90;;;;;;5044706;28;20652;-58
2023/08/29 09:48:08;;;;;;;4.83;4.40;;;16.80;99.90;;;;;;5044218;28;20485;-58
2023/08/29 09:50:38;;;;;;;5.40;4.80;;;16.90;99.90;;;;;;5043556;28;20466;-57
2023/08/29 09:53:09;;;;;;;4.70;4.30;;;17.00;99.90;;;;;;5043345;28;20569;-58
2023/08/29 09:55:40;;;;;;;4.77;4.37;;;17.10;99.90;;;;;;5043308;28;20570;-58
2023/08/29 09:58:10;;;;;;;4.17;3.80;;;17.20;99.90;;;;;;5038724;28;20492;-58
2023/08/29 10:00:40;;;;;;;4.67;3.97;;;17.30;99.90;;;;;;5043942;28;20475;-58
2023/08/29 10:03:10;;;;;;;4.13;3.73;;;17.50;99.90;;;;;;5038448;28;20494;-58
2023/08/29 10:05:40;;;;;;;5.17;3.20;;;17.60;99.90;;;;;;5042169;28;20517;-58
2023/08/29 10:08:18;;;;;;;3.60;2.90;;;17.70;99.90;;;;;;5041848;28;20547;-59
2023/08/29 10:10:48;;;;;;;3.73;3.00;;;17.70;99.90;;;;;;5041854;28;20471;-58
2023/08/29 10:13:17;;;;;;;3.50;3.20;;;17.60;99.90;;;;;;5041977;28;20474;-58
2023/08/29 10:15:47;;;;;;;3.10;2.90;;;17.70;99.90;;;;;;5040977;28;20546;-59
2023/08/29 10:18:16;;;;;;;2.40;2.20;;;17.80;99.90;;;;;;5040760;28;20528;-58
2023/08/29 10:20:45;;;;;;;2.17;1.97;;;18.00;99.90;;;;;;5035549;28;20485;-58
2023/08/29 10:23:16;;;;;;;2.17;2.00;;;18.20;99.90;;;;;;5038088;28;20479;-58
2023/08/29 10:25:46;;;;;;;1.70;1.60;;;18.30;99.90;;;;;;5039459;28;20498;-58
2023/08/29 10:28:15;;;;;;;2.33;2.10;;;18.50;99.90;;;;;;5041221;28;20541;-58
2023/08/29 10:30:45;;;;;;;2.10;1.90;;;18.60;99.90;;;;;;5037789;28;20555;-58
2023/08/29 10:33:14;;;;;;;2.43;2.10;;;18.70;99.90;;;;;;5038444;28;21000;-58
2023/08/29 10:35:42;;;;;;;2.40;2.20;;;18.70;99.90;;;;;;5041197;28;20513;-58
2023/08/29 10:38:14;;;;;;;2.20;2.00;;;18.70;99.90;;;;;;5037221;28;20470;-59
2023/08/29 10:40:44;;;;;;;1.90;1.80;;;18.50;99.90;;;;;;5038622;28;20470;-57
2023/08/29 10:43:19;;;;;;;1.73;1.50;;;18.50;99.90;;;;;;5045110;28;20963;-58
2023/08/29 10:45:49;;;;;;;1.60;1.50;;;18.50;99.90;;;;;;5037017;28;20496;-58
2023/08/29 10:48:18;;;;;;;1.67;1.57;;;18.70;99.90;;;;;;5038806;28;21040;-58
2023/08/29 10:50:48;;;;;;;1.93;1.67;;;18.90;99.90;;;;;;5038013;28;20477;-58
2023/08/29 10:53:20;;;;;;;1.30;1.20;;;19.10;99.90;;;;;;5033504;28;20490;-59
2023/08/29 10:56:01;;;;;;;2.13;1.63;;;19.40;99.90;;;;;;5041519;28;20474;-58
2023/08/29 10:58:35;;;;;;;1.33;1.23;;;19.60;99.90;;;;;;5041271;28;20477;-58
2023/08/29 11:01:04;;;;;;;1.67;1.57;;;19.80;99.90;;;;;;5039630;28;20557;-59
2023/08/29 11:03:48;;;;;;;1.60;1.50;;;20.00;99.90;;;;;;5038577;28;20477;-58
2023/08/29 11:06:16;;;;;;;1.77;1.50;;;20.10;99.90;;;;;;5040378;28;20489;-58
2023/08/29 11:08:46;;;;;;;1.30;1.20;;;20.30;99.90;;;;;;5040775;28;20474;-56
2023/08/29 11:11:16;;;;;;;1.50;1.40;;;20.50;99.90;;;;;;5042925;28;20498;-57
2023/08/29 11:14:01;;;;;;;1.43;1.33;;;20.70;99.90;;;;;;5039089;28;20514;-58
2023/08/29 11:16:29;;;;;;;2.40;1.60;;;20.90;99.90;;;;;;5035071;28;20942;-57
2023/08/29 11:19:05;;;;;;;2.53;1.70;;;20.90;99.90;;;;;;5026861;28;20467;-58
2023/08/29 11:21:34;;;;;;;2.00;1.60;;;20.70;99.90;;;;;;5030935;28;21036;-58
2023/08/29 11:24:05;;;;;;;1.77;1.67;;;20.60;99.90;;;;;;5025367;28;20506;-58
2023/08/29 11:26:38;;;;;;;1.30;1.20;;;20.40;99.90;;;;;;5030308;28;21018;-58
2023/08/29 11:29:06;;;;;;;1.63;1.53;;;20.30;99.90;;;;;;5030517;28;20569;-57
2023/08/29 11:31:40;;;;;;;1.60;1.40;;;20.20;99.90;;;;;;5034228;28;21005;-58
2023/08/29 11:34:17;;;;;;;2.40;1.60;;;20.10;99.90;;;;;;5037135;28;20494;-58
2023/08/29 11:36:48;;;;;;;1.40;1.30;;;20.20;99.90;;;;;;5032795;28;20494;-58
2023/08/29 11:39:20;;;;;;;2.50;1.30;;;20.30;99.90;;;;;;5041322;28;20466;-57
2023/08/29 11:41:48;;;;;;;1.50;1.40;;;20.50;99.90;;;;;;5042677;28;20663;-57
2023/08/29 11:44:36;;;;;;;1.13;1.03;;;20.70;99.90;;;;;;5032935;28;20474;-58
2023/08/29 11:47:25;;;;;;;1.13;1.03;;;20.90;99.90;;;;;;5039133;28;20521;-57
2023/08/29 11:49:53;;;;;;;1.20;1.10;;;21.00;99.90;;;;;;5032422;28;20582;-58
2023/08/29 11:52:21;;;;;;;1.30;1.20;;;21.10;99.90;;;;;;5037455;28;20552;-57
2023/08/29 11:54:52;;;;;;;1.20;0.90;;;21.30;99.90;;;;;;5039912;28;20478;-57
2023/08/29 11:57:20;;;;;;;1.33;1.20;;;21.40;99.90;;;;;;5040326;28;20481;-57
2023/08/29 11:59:51;;;;;;;1.40;1.00;;;21.40;99.90;;;;;;5034773;28;20477;-57
2023/08/29 12:02:21;;;;;;;1.33;1.23;;;21.40;99.90;;;;;;5041385;28;20482;-57
2023/08/29 12:04:55;;;;;;;1.40;1.30;;;21.40;99.90;;;;;;5043476;28;20557;-58
2023/08/29 12:07:24;;;;;;;3.87;1.13;;;21.40;99.90;;;;;;5041069;28;20493;-57
2023/08/29 12:09:54;;;;;;;1.53;1.30;;;21.40;99.90;;;;;;5038051;28;20471;-58
2023/08/29 12:12:30;;;;;;;1.30;1.20;;;21.50;99.90;;;;;;5036324;28;20470;-57
2023/08/29 12:14:58;;;;;;;1.30;1.10;;;21.50;99.90;;;;;;5035629;28;20490;-58
2023/08/29 12:17:36;;;;;;;1.20;1.20;;;21.50;99.90;;;;;;5035807;28;20605;-57
2023/08/29 12:20:20;;;;;;;1.30;1.20;;;21.50;99.90;;;;;;5039561;28;20473;-58
2023/08/29 12:22:50;;;;;;;1.60;1.50;;;21.60;99.90;;;;;;5039239;28;20472;-58
2023/08/29 12:25:19;;;;;;;1.20;1.10;;;21.60;99.90;;;;;;5043164;28;21100;-58
2023/08/29 12:27:48;;;;;;;1.20;1.10;;;21.80;99.90;;;;;;5044960;28;20765;-58
2023/08/29 12:30:16;;;;;;;1.23;1.13;;;21.90;99.90;;;;;;5040509;28;20470;-57
2023/08/29 12:32:46;;;;;;;2.03;1.33;;;22.00;99.90;;;;;;5036113;28;20561;-58
2023/08/29 12:35:17;;;;;;;1.37;1.27;;;22.00;99.90;;;;;;5041100;28;20490;-58
2023/08/29 12:37:45;;;;;;;1.83;1.10;;;22.00;99.90;;;;;;5040128;28;20490;-58
2023/08/29 12:40:14;;;;;;;1.33;1.23;;;22.10;99.90;;;;;;5041298;28;20656;-57
2023/08/29 12:42:44;;;;;;;1.30;1.20;;;22.10;99.90;;;;;;5045621;28;20977;-57
2023/08/29 12:45:13;;;;;;;1.60;1.50;;;22.10;99.90;;;;;;5043669;28;20577;-58
2023/08/29 12:47:41;;;;;;;1.87;1.50;;;22.10;99.90;;;;;;5038509;28;20589;-58
2023/08/29 12:50:09;;;;;;;2.17;1.20;;;22.00;99.90;;;;;;5035683;28;20474;-57
2023/08/29 12:52:41;;;;;;;1.37;1.23;;;22.00;99.90;;;;;;5044036;28;20482;-58
2023/08/29 12:55:11;;;;;;;1.63;1.30;;;22.00;99.90;;;;;;5043038;28;20563;-58
2023/08/29 12:57:39;;;;;;;1.33;1.13;;;22.10;99.90;;;;;;5044393;28;20918;-58